Overview Statistics Trail Chart Weather Telemetry Raw packets
 

This is the latest recevied weather packets stored in our database for station/object SV2RCS-13. If no packets are shown the sender has not sent any weather packets the latest 10 day(s).

<< 1 2 3 4 5 6 >>
Time Temp. Humidity Pressure Rain* Wind** Luminosity Snow
1788380359 24.44° C 54% 1014.3 hPa - - - -
1788379759 24.44° C 54% 1014.5 hPa - - - -
1788379158 24.44° C 54% 1014.4 hPa - - - -
1788378558 24.44° C 54% 1014.5 hPa - - - -
1788377958 24.44° C 58% 1014.6 hPa - - - -
1788377358 24.44° C 58% 1014.6 hPa - - - -
1788376758 24.44° C 57% 1014.8 hPa - - - -
1788376159 24.44° C 58% 1014.6 hPa - - - -
1788375560 25° C 55% 1014.5 hPa - - - -
1788374958 25° C 57% 1014.4 hPa - - - -
1788374358 25.56° C 58% 1014.3 hPa - - - -
1788373760 25.56° C 56% 1014.3 hPa - - - -
1788373158 25.56° C 54% 1014.2 hPa - - - -
1788372558 25.56° C 52% 1013.9 hPa - - - -
1788371958 25.56° C 54% 1014.1 hPa - - - -
1788371358 26.11° C 56% 1013.5 hPa - - - -
1788370758 25.56° C 53% 1013.3 hPa - - - -
1788370159 26.11° C 54% 1013.4 hPa - - - -
1788369559 27.22° C 47% 1013 hPa - - - -
1788368958 28.89° C 34% 1012.4 hPa - - - -
1788368358 28.89° C 32% 1012 hPa - - - -
1788367759 29.44° C 31% 1011.8 hPa - - - -
1788367158 29.44° C 31% 1011.7 hPa - - - -
1788366558 29.44° C 30% 1011.8 hPa - - - -
1788365959 29.44° C 29% 1011.5 hPa - - - -

* Rain since midnight (hover to see other rain measurements)
** Current wind speed in m/s (hover to see current wind gust speed)